createdAt,value
2019-03-02T00:02:14.034Z,40.10
2019-03-02T00:04:45.891Z,42.13
2019-03-02T00:07:12.535Z,40.40
2019-03-02T00:09:41.311Z,42.20
2019-03-02T00:12:09.689Z,42.43
2019-03-02T00:14:38.317Z,39.70
2019-03-02T00:17:06.729Z,39.60
2019-03-02T00:19:35.127Z,43.00
2019-03-02T00:22:06.633Z,41.37
2019-03-02T00:24:33.646Z,41.20
2019-03-02T00:27:02.051Z,40.00
2019-03-02T00:29:30.443Z,40.33
2019-03-02T00:31:58.849Z,42.87
2019-03-02T00:34:46.909Z,44.50
2019-03-02T00:37:15.333Z,41.87
2019-03-02T00:39:43.960Z,42.33
2019-03-02T00:42:13.534Z,41.37
2019-03-02T00:44:42.481Z,43.27
2019-03-02T00:47:11.153Z,40.20
2019-03-02T00:49:39.532Z,38.60
2019-03-02T00:52:07.942Z,40.10
2019-03-02T00:54:36.585Z,38.63
2019-03-02T00:57:05.220Z,40.27
2019-03-02T00:59:35.789Z,40.90
2019-03-02T01:02:05.542Z,39.33
2019-03-02T01:04:34.405Z,37.17
2019-03-02T01:07:03.086Z,40.30
2019-03-02T01:09:31.774Z,39.83
2019-03-02T01:12:00.459Z,36.40
2019-03-02T01:14:31.854Z,36.80
2019-03-02T01:16:59.259Z,36.37
2019-03-02T01:19:27.948Z,34.30
2019-03-02T01:21:56.369Z,37.90
2019-03-02T01:24:24.744Z,34.10
2019-03-02T01:26:55.617Z,35.50
2019-03-02T01:29:23.534Z,34.93
2019-03-02T01:31:51.923Z,33.50
2019-03-02T01:34:20.551Z,33.87
2019-03-02T01:36:48.956Z,33.93
2019-03-02T01:39:17.644Z,36.47
2019-03-02T01:41:46.032Z,35.37
2019-03-02T01:44:16.377Z,35.40
2019-03-02T01:46:44.554Z,37.67
2019-03-02T01:49:13.204Z,34.90
2019-03-02T01:51:41.889Z,36.20
2019-03-02T01:54:10.576Z,34.93
2019-03-02T01:56:41.392Z,33.93
2019-03-02T01:59:49.158Z,32.27
2019-03-02T02:02:17.544Z,34.30
2019-03-02T02:04:46.280Z,34.30
2019-03-02T02:07:18.003Z,33.80
2019-03-02T02:09:45.084Z,31.77
2019-03-02T02:12:13.883Z,31.30
2019-03-02T02:14:42.555Z,33.50
2019-03-02T02:17:11.248Z,33.63
2019-03-02T02:19:39.719Z,33.13
2019-03-02T02:22:08.321Z,34.17
2019-03-02T02:24:36.962Z,32.80
2019-03-02T02:27:05.348Z,31.10
2019-03-02T02:29:33.740Z,32.73
2019-03-02T02:32:02.390Z,32.17
2019-03-02T02:34:30.787Z,32.80
2019-03-02T02:37:00.169Z,32.40
2019-03-02T02:39:33.550Z,35.27
2019-03-02T02:42:00.075Z,33.70
2019-03-02T02:44:49.149Z,36.60
2019-03-02T02:47:17.549Z,32.67
2019-03-02T02:49:49.195Z,33.23
2019-03-02T02:52:16.306Z,34.30
2019-03-02T02:54:44.680Z,32.03
2019-03-02T02:57:13.359Z,33.83
2019-03-02T02:59:41.765Z,33.93
2019-03-02T03:02:11.970Z,34.73
2019-03-02T03:04:40.546Z,31.73
2019-03-02T03:07:12.362Z,34.33
2019-03-02T03:12:28.417Z,32.70
2019-03-02T03:14:58.511Z,33.63
2019-03-02T03:17:28.052Z,31.93
2019-03-02T03:19:57.539Z,32.13
2019-03-02T03:22:26.230Z,33.93
2019-03-02T03:25:17.956Z,32.83
2019-03-02T03:27:47.624Z,34.77
2019-03-02T03:30:54.352Z,32.40
2019-03-02T03:33:22.752Z,32.87
2019-03-02T03:35:51.638Z,33.00
2019-03-02T03:38:40.872Z,31.47
2019-03-02T03:41:09.506Z,31.63
2019-03-02T03:43:42.464Z,31.70
2019-03-02T03:46:08.280Z,30.50
2019-03-02T03:48:36.956Z,30.77
2019-03-02T03:51:05.356Z,31.23
2019-03-02T03:53:34.036Z,33.47
2019-03-02T03:56:43.977Z,33.97
2019-03-02T03:59:14.156Z,32.37
2019-03-02T04:01:42.705Z,32.40
2019-03-02T04:04:11.467Z,32.17
2019-03-02T04:06:40.164Z,31.23
2019-03-02T04:09:48.483Z,31.60
2019-03-02T04:12:19.914Z,29.30
2019-03-02T04:14:47.217Z,32.10
2019-03-02T04:17:15.961Z,30.47
2019-03-02T04:19:44.343Z,30.50
2019-03-02T04:22:52.650Z,31.30
2019-03-02T04:25:21.045Z,28.63
2019-03-02T04:27:54.159Z,30.47
2019-03-02T04:30:39.189Z,29.90
2019-03-02T04:33:07.877Z,29.17
2019-03-02T04:35:36.266Z,27.60
2019-03-02T04:38:24.292Z,28.33
2019-03-02T04:40:52.748Z,29.10
2019-03-02T04:43:21.462Z,28.70
2019-03-02T04:45:50.151Z,27.80
2019-03-02T04:48:18.537Z,28.23
2019-03-02T04:50:46.939Z,28.80
2019-03-02T04:53:16.595Z,29.67
2019-03-02T04:55:48.613Z,28.97
2019-03-02T04:58:16.445Z,28.47
2019-03-02T05:00:44.860Z,28.97
2019-03-02T05:03:13.244Z,28.63
2019-03-02T05:05:43.428Z,27.27
2019-03-02T05:08:11.832Z,30.50
2019-03-02T05:10:40.286Z,31.20
2019-03-02T05:13:08.688Z,26.70
2019-03-02T05:15:37.073Z,30.43
2019-03-02T05:18:05.461Z,29.30
2019-03-02T05:20:34.099Z,29.33
2019-03-02T05:23:02.476Z,29.07
2019-03-02T05:25:30.880Z,28.40
2019-03-02T05:27:59.557Z,29.80
2019-03-02T05:30:30.515Z,29.50
2019-03-02T05:32:58.362Z,28.50
2019-03-02T05:35:27.054Z,29.43
2019-03-02T05:37:55.456Z,29.07
2019-03-02T05:40:24.391Z,28.47
2019-03-02T05:42:53.954Z,30.90
2019-03-02T05:46:02.255Z,30.70
2019-03-02T05:48:30.652Z,31.93
2019-03-02T05:50:59.296Z,31.50
2019-03-02T05:53:30.248Z,28.00
2019-03-02T05:55:57.811Z,30.73
2019-03-02T05:58:26.255Z,30.37
2019-03-02T06:00:54.649Z,31.20
2019-03-02T06:03:23.045Z,31.30
2019-03-02T06:05:51.435Z,31.00
2019-03-02T06:08:20.096Z,30.33
2019-03-02T06:10:48.488Z,34.57
2019-03-02T06:13:18.833Z,32.73
2019-03-02T06:15:46.996Z,31.40
2019-03-02T06:18:15.383Z,33.47
2019-03-02T06:20:44.718Z,32.37
2019-03-02T06:23:13.896Z,32.60
2019-03-02T06:25:42.280Z,31.80
2019-03-02T06:28:10.677Z,33.50
2019-03-02T06:30:40.574Z,35.80
2019-03-02T06:33:09.405Z,33.83
2019-03-02T06:35:37.846Z,33.57
2019-03-02T06:38:06.238Z,34.60
2019-03-02T06:40:34.641Z,33.37
2019-03-02T06:43:03.024Z,33.13
2019-03-02T06:45:31.733Z,32.03
2019-03-02T06:48:00.404Z,33.50
2019-03-02T06:50:31.787Z,33.43
2019-03-02T06:53:01.444Z,35.10
2019-03-02T06:55:29.337Z,34.97
2019-03-02T06:57:57.724Z,32.70
2019-03-02T07:00:26.349Z,34.80
2019-03-02T07:02:55.082Z,35.17
2019-03-02T07:05:23.464Z,34.37
2019-03-02T07:07:53.639Z,32.80
2019-03-02T07:10:41.924Z,32.73
2019-03-02T07:15:59.661Z,35.73
2019-03-02T07:21:17.426Z,36.07
2019-03-02T07:23:45.818Z,32.80
2019-03-02T07:26:33.839Z,35.03
2019-03-02T07:29:02.472Z,34.10
2019-03-02T07:31:30.852Z,35.47
2019-03-02T07:33:59.258Z,31.83
2019-03-02T07:36:33.824Z,34.10
2019-03-02T07:38:58.084Z,33.73
2019-03-02T07:41:26.777Z,32.00
2019-03-02T07:43:55.460Z,34.17
2019-03-02T07:46:23.867Z,33.20
2019-03-02T07:48:52.251Z,32.30
2019-03-02T07:51:20.636Z,35.37
2019-03-02T07:53:49.040Z,33.03
2019-03-02T07:56:17.764Z,33.40
2019-03-02T07:58:46.458Z,32.20
2019-03-02T08:01:16.740Z,32.47
2019-03-02T08:03:44.964Z,33.43
2019-03-02T08:06:13.637Z,32.70
2019-03-02T08:08:42.042Z,31.97
2019-03-02T08:11:13.255Z,30.63
2019-03-02T08:13:40.539Z,31.23
2019-03-02T08:16:08.940Z,28.87
2019-03-02T08:18:37.324Z,29.73
2019-03-02T08:21:05.718Z,28.70
2019-03-02T08:23:34.120Z,28.37
2019-03-02T08:26:02.500Z,27.57
2019-03-02T08:28:30.894Z,25.20
2019-03-02T08:30:59.298Z,27.00
2019-03-02T08:33:30.595Z,27.67
2019-03-02T08:35:58.036Z,25.33
2019-03-02T08:38:26.444Z,26.00
2019-03-02T08:40:56.280Z,23.23
2019-03-02T08:43:25.497Z,25.20
2019-03-02T08:45:54.120Z,24.20
2019-03-02T08:48:22.831Z,23.53
2019-03-02T08:50:53.097Z,23.23
2019-03-02T08:53:21.743Z,23.23
2019-03-02T08:55:51.539Z,25.53
2019-03-02T08:58:19.920Z,23.50
2019-03-02T09:00:48.621Z,24.37
2019-03-02T09:03:37.270Z,24.10
2019-03-02T09:06:11.460Z,24.27
2019-03-02T09:08:37.205Z,23.33
2019-03-02T09:11:25.080Z,21.50
2019-03-02T09:13:53.481Z,22.73
2019-03-02T09:16:41.900Z,21.90
2019-03-02T09:19:11.643Z,23.00
2019-03-02T09:21:40.364Z,21.63
2019-03-02T09:24:09.424Z,22.57
2019-03-02T09:26:58.832Z,21.90
2019-03-02T09:29:27.516Z,20.27
2019-03-02T09:31:55.917Z,21.07
2019-03-02T09:34:24.535Z,22.57
2019-03-02T09:36:52.921Z,22.67
2019-03-02T09:39:23.649Z,21.90
2019-03-02T09:41:51.754Z,22.20
2019-03-02T09:44:20.154Z,23.57
2019-03-02T09:46:48.536Z,23.87
2019-03-02T09:49:16.918Z,23.00
2019-03-02T09:51:48.240Z,20.93
2019-03-02T09:54:15.690Z,23.20
2019-03-02T09:56:45.690Z,21.00
2019-03-02T09:59:14.077Z,21.30
2019-03-02T10:01:42.459Z,21.20
2019-03-02T10:04:11.167Z,20.00
2019-03-02T10:06:39.609Z,18.43
2019-03-02T10:09:27.699Z,19.30
2019-03-02T10:11:56.373Z,18.77
2019-03-02T10:15:04.676Z,20.33
2019-03-02T10:17:34.854Z,16.40
2019-03-02T10:22:58.387Z,16.30
2019-03-02T10:25:31.853Z,15.17
2019-03-02T10:27:57.528Z,14.67
2019-03-02T10:30:27.541Z,14.13
2019-03-02T10:32:57.503Z,14.17
2019-03-02T10:35:26.231Z,15.40
2019-03-02T10:37:55.018Z,14.93
2019-03-02T10:40:23.605Z,15.13
2019-03-02T10:42:53.819Z,14.63
2019-03-02T10:46:02.366Z,15.27
2019-03-02T10:48:31.027Z,14.30
2019-03-02T10:51:02.313Z,14.70
2019-03-02T10:53:29.540Z,13.50
2019-03-02T10:55:58.171Z,13.87
2019-03-02T10:58:26.560Z,12.90
2019-03-02T11:00:55.038Z,13.63
2019-03-02T11:03:23.416Z,13.93
2019-03-02T11:06:10.932Z,12.63
2019-03-02T11:09:03.839Z,12.70
2019-03-02T11:14:27.768Z,12.83
2019-03-02T11:17:19.661Z,12.40
2019-03-02T11:20:05.974Z,13.90
2019-03-02T11:22:53.713Z,14.60
2019-03-02T11:25:41.536Z,14.07
2019-03-02T11:28:29.275Z,14.90
2019-03-02T11:33:52.545Z,17.43
2019-03-02T11:39:53.138Z,17.50
2019-03-02T11:45:49.300Z,18.23
2019-03-02T11:48:37.044Z,15.93
2019-03-02T11:51:27.092Z,17.63
2019-03-02T11:57:03.482Z,14.63
2019-03-02T11:59:50.981Z,14.73
2019-03-02T12:02:38.744Z,15.23
2019-03-02T12:05:47.038Z,14.97
2019-03-02T12:08:34.792Z,16.40
2019-03-02T12:11:22.349Z,17.00
2019-03-02T12:14:10.170Z,15.17
2019-03-02T12:19:48.185Z,15.10
2019-03-02T12:22:35.724Z,15.50
2019-03-02T12:30:57.210Z,15.53
2019-03-02T12:33:44.711Z,15.00
2019-03-02T12:36:32.227Z,15.97
2019-03-02T12:39:23.789Z,14.23
2019-03-02T12:47:20.240Z,13.33
2019-03-02T12:50:08.025Z,14.30
2019-03-02T12:55:34.697Z,13.17
2019-03-02T13:01:11.287Z,14.87
2019-03-02T13:06:47.885Z,13.57
2019-03-02T13:09:36.961Z,12.97
2019-03-02T13:12:25.125Z,12.53
2019-03-02T13:18:01.957Z,10.80
2019-03-02T13:23:38.955Z,10.60
2019-03-02T13:26:27.785Z,10.40
2019-03-02T13:31:50.505Z,10.27
2019-03-02T13:34:38.271Z,10.83
2019-03-02T13:37:45.132Z,11.50
2019-03-02T13:40:33.763Z,11.60
2019-03-02T13:43:24.671Z,13.10
2019-03-02T13:51:40.086Z,11.63
2019-03-02T13:54:27.608Z,11.00
2019-03-02T13:57:15.130Z,11.60
2019-03-02T14:00:03.502Z,11.10
2019-03-02T14:02:52.342Z,11.30
2019-03-02T14:05:41.989Z,10.23
2019-03-02T14:16:19.770Z,11.93
2019-03-02T14:21:56.609Z,11.40
2019-03-02T14:24:46.900Z,12.23
2019-03-02T14:30:08.976Z,12.10
2019-03-02T14:32:56.716Z,13.00
2019-03-02T14:38:20.234Z,13.20
2019-03-02T14:41:09.033Z,12.80
2019-03-02T14:43:57.214Z,11.97
2019-03-02T14:46:46.022Z,13.77
2019-03-02T14:49:33.769Z,12.27
2019-03-02T14:55:10.618Z,14.00
2019-03-02T15:00:47.209Z,13.70
2019-03-02T15:03:34.711Z,13.90
2019-03-02T15:06:22.465Z,14.03
2019-03-02T15:11:59.302Z,15.30
2019-03-02T15:14:46.809Z,13.60
2019-03-02T15:17:34.519Z,14.63
2019-03-02T15:23:44.101Z,14.17
2019-03-02T15:29:20.692Z,14.10
2019-03-02T15:34:58.884Z,14.63
2019-03-02T15:37:46.761Z,14.37
2019-03-02T15:40:34.348Z,14.43
2019-03-02T15:46:10.946Z,15.53
2019-03-02T15:48:59.705Z,13.60
2019-03-02T15:51:49.460Z,12.20
2019-03-02T15:54:36.996Z,13.30
2019-03-02T15:57:24.756Z,13.07
2019-03-02T16:00:13.445Z,13.33
2019-03-02T16:03:01.801Z,12.40
2019-03-02T16:05:49.318Z,13.33
2019-03-02T16:08:37.106Z,13.63
2019-03-02T16:11:32.485Z,14.03
2019-03-02T16:19:28.985Z,13.67
2019-03-02T16:22:34.259Z,12.77
2019-03-02T16:25:21.814Z,14.10
2019-03-02T16:28:09.540Z,12.83
2019-03-02T16:33:36.536Z,13.93
2019-03-02T16:36:24.352Z,14.67
2019-03-02T16:39:11.920Z,13.90
2019-03-02T16:41:59.732Z,13.93
2019-03-02T16:47:23.157Z,14.17
2019-03-02T16:50:12.943Z,13.00
2019-03-02T16:53:22.567Z,13.00
2019-03-02T16:58:59.271Z,13.73
2019-03-02T17:01:46.933Z,11.93
2019-03-02T17:04:34.436Z,12.93
2019-03-02T17:07:23.286Z,13.00
2019-03-02T17:10:11.555Z,12.50
2019-03-02T17:18:25.335Z,12.60
2019-03-02T17:21:12.524Z,13.03
2019-03-02T17:24:00.036Z,14.40
2019-03-02T17:26:49.446Z,12.67
2019-03-02T17:29:36.824Z,12.60
2019-03-02T17:32:45.130Z,12.00
2019-03-02T17:35:32.983Z,12.73
2019-03-02T17:38:44.071Z,12.97
2019-03-02T17:41:30.796Z,12.03
2019-03-02T17:44:18.719Z,12.70
2019-03-02T17:47:08.045Z,13.70
2019-03-02T17:49:55.739Z,14.37
2019-03-02T17:55:18.738Z,12.83
2019-03-02T18:03:34.750Z,12.30
2019-03-02T18:06:23.874Z,13.60
2019-03-02T18:11:51.169Z,12.80
2019-03-02T18:14:38.707Z,14.13
2019-03-02T18:17:26.440Z,13.13
2019-03-02T18:19:55.107Z,12.27
2019-03-02T18:22:23.491Z,11.80
2019-03-02T18:25:12.218Z,11.93
2019-03-02T18:27:41.605Z,10.73
2019-03-02T18:30:50.144Z,11.00
2019-03-02T18:33:37.641Z,11.43
2019-03-02T18:36:09.809Z,10.67
2019-03-02T18:38:36.911Z,10.07
2019-03-02T18:41:05.698Z,11.10
2019-03-02T18:43:34.338Z,10.23
2019-03-02T18:46:02.973Z,10.40
2019-03-02T18:48:50.484Z,10.43
2019-03-02T18:51:40.919Z,9.93
2019-03-02T18:54:27.387Z,10.80
2019-03-02T18:56:55.779Z,9.83
2019-03-02T18:59:24.154Z,9.60
2019-03-02T19:01:52.547Z,9.10
2019-03-02T19:04:40.266Z,9.20
2019-03-02T19:07:08.659Z,9.67
2019-03-02T19:09:37.328Z,10.13
2019-03-02T19:12:05.728Z,10.20
2019-03-02T19:14:34.154Z,9.80
2019-03-02T19:17:22.130Z,9.67
2019-03-02T19:19:50.513Z,9.30
2019-03-02T19:22:19.186Z,9.57
2019-03-02T19:24:47.873Z,9.40
2019-03-02T19:27:16.560Z,9.70
2019-03-02T19:29:44.961Z,10.90
2019-03-02T19:32:13.340Z,10.63
2019-03-02T19:34:41.727Z,9.40
2019-03-02T19:37:10.116Z,10.10
2019-03-02T19:39:38.767Z,8.97
2019-03-02T19:42:07.445Z,8.27
2019-03-02T19:44:36.136Z,9.27
2019-03-02T19:47:04.520Z,9.43
2019-03-02T19:49:33.376Z,9.57
2019-03-02T19:52:02.079Z,9.00
2019-03-02T19:54:30.978Z,9.30
2019-03-02T19:56:59.391Z,9.97
2019-03-02T19:59:27.800Z,9.53
2019-03-02T20:01:56.246Z,9.10
2019-03-02T20:04:24.864Z,9.97
2019-03-02T20:06:53.263Z,10.10
2019-03-02T20:10:01.791Z,8.87
2019-03-02T20:12:30.183Z,9.93
2019-03-02T20:14:58.635Z,10.57
2019-03-02T20:17:27.030Z,9.17
2019-03-02T20:19:55.725Z,7.87
2019-03-02T20:22:24.346Z,8.60
2019-03-02T20:24:52.737Z,9.07
2019-03-02T20:27:21.114Z,8.97
2019-03-02T20:29:49.853Z,8.83
2019-03-02T20:32:18.543Z,8.80
2019-03-02T20:34:47.227Z,8.10
2019-03-02T20:37:15.916Z,8.60
2019-03-02T20:39:44.703Z,8.50
2019-03-02T20:42:13.108Z,8.63
2019-03-02T20:44:41.491Z,9.60
2019-03-02T20:47:10.147Z,7.93
2019-03-02T20:49:38.848Z,7.77
2019-03-02T20:52:07.219Z,7.63
2019-03-02T20:54:35.614Z,7.73
2019-03-02T20:57:03.996Z,7.67
2019-03-02T20:59:32.380Z,7.97
2019-03-02T21:02:00.843Z,8.10
2019-03-02T21:04:29.652Z,7.40
2019-03-02T21:06:58.109Z,6.73
2019-03-02T21:09:26.491Z,6.93
2019-03-02T21:11:54.894Z,7.87
2019-03-02T21:14:23.273Z,6.50
2019-03-02T21:16:51.918Z,6.70
2019-03-02T21:19:40.064Z,8.07
2019-03-02T21:22:08.447Z,6.20
2019-03-02T21:24:37.178Z,6.90
2019-03-02T21:27:05.647Z,6.57
2019-03-02T21:29:34.268Z,7.03
2019-03-02T21:32:02.978Z,7.00
2019-03-02T21:34:31.662Z,7.30
2019-03-02T21:37:00.351Z,6.70
2019-03-02T21:39:28.732Z,5.73
2019-03-02T21:41:57.111Z,6.27
2019-03-02T21:44:25.798Z,6.03
2019-03-02T21:46:54.175Z,5.33
2019-03-02T21:49:22.569Z,6.07
2019-03-02T21:52:10.594Z,5.80
2019-03-02T21:54:38.987Z,5.07
2019-03-02T21:57:07.366Z,6.47
2019-03-02T21:59:35.746Z,6.03
2019-03-02T22:02:04.214Z,6.00
2019-03-02T22:04:32.894Z,6.70
2019-03-02T22:07:01.307Z,6.27
2019-03-02T22:09:29.672Z,6.30
2019-03-02T22:11:58.053Z,6.40
2019-03-02T22:14:26.720Z,6.77
2019-03-02T22:16:55.102Z,6.10
2019-03-02T22:19:23.503Z,6.33
2019-03-02T22:22:11.229Z,6.83
2019-03-02T22:24:39.698Z,6.57
2019-03-02T22:27:08.084Z,6.70
2019-03-02T22:29:36.463Z,5.97
2019-03-02T22:32:04.859Z,6.80
2019-03-02T22:34:33.247Z,6.47
2019-03-02T22:37:01.647Z,6.87
2019-03-02T22:39:30.027Z,5.90
2019-03-02T22:41:58.406Z,6.27
2019-03-02T22:44:27.128Z,6.13
2019-03-02T22:46:55.809Z,5.93
2019-03-02T22:49:24.441Z,5.87
2019-03-02T22:51:52.818Z,5.70
2019-03-02T22:54:21.976Z,6.53
2019-03-02T22:57:09.753Z,6.03
2019-03-02T23:00:18.272Z,6.40
2019-03-02T23:02:45.747Z,6.00
2019-03-02T23:05:14.194Z,5.87
2019-03-02T23:07:42.597Z,5.77
2019-03-02T23:10:51.130Z,5.57
2019-03-02T23:13:20.082Z,5.63
2019-03-02T23:15:48.536Z,5.93
2019-03-02T23:18:36.272Z,5.70
2019-03-02T23:21:04.658Z,5.43
2019-03-02T23:23:33.054Z,5.30
2019-03-02T23:26:01.435Z,6.13
2019-03-02T23:28:30.063Z,6.00
2019-03-02T23:30:58.457Z,5.27
2019-03-02T23:33:26.836Z,5.80
2019-03-02T23:36:35.137Z,5.40
2019-03-02T23:42:11.858Z,5.67
2019-03-02T23:44:40.237Z,5.63
2019-03-02T23:47:08.926Z,5.70
2019-03-02T23:49:37.606Z,6.17
2019-03-02T23:52:06.055Z,5.60
2019-03-02T23:54:34.455Z,7.00
2019-03-02T23:57:02.834Z,5.40
2019-03-02T23:59:31.213Z,5.73
